createdAt,value
2022-12-25T00:01:20.666Z,97.07
2022-12-25T00:03:48.735Z,96.14
2022-12-25T00:06:17.090Z,96.12
2022-12-25T00:08:44.351Z,96.50
2022-12-25T00:11:18.417Z,95.95
2022-12-25T00:13:48.641Z,95.81
2022-12-25T00:16:25.154Z,95.73
2022-12-25T00:18:56.933Z,95.83
2022-12-25T00:21:26.369Z,95.35
2022-12-25T00:23:58.323Z,95.87
2022-12-25T00:26:27.152Z,95.74
2022-12-25T00:28:58.673Z,94.76
2022-12-25T00:31:27.012Z,95.35
2022-12-25T00:33:56.666Z,95.56
2022-12-25T00:36:28.513Z,96.42
2022-12-25T00:38:55.633Z,97.65
2022-12-25T00:41:42.930Z,98.77
2022-12-25T00:44:15.987Z,98.74
2022-12-25T00:46:43.600Z,99.12
2022-12-25T00:49:11.935Z,99.53
2022-12-25T00:51:39.411Z,99.81
2022-12-25T00:54:09.265Z,98.66
2022-12-25T00:56:39.968Z,98.73
2022-12-25T00:59:09.930Z,98.56
2022-12-25T01:01:37.711Z,99.73
2022-12-25T01:04:05.483Z,99.66
2022-12-25T01:06:33.131Z,99.30
2022-12-25T01:09:18.838Z,99.02
2022-12-25T01:11:46.374Z,98.60
2022-12-25T01:14:13.619Z,98.31
2022-12-25T01:16:43.083Z,98.81
2022-12-25T01:19:12.673Z,98.86
2022-12-25T01:21:39.902Z,98.48
2022-12-25T01:24:07.564Z,98.75
2022-12-25T01:26:39.115Z,98.90
2022-12-25T01:29:06.179Z,99.78
2022-12-25T01:31:35.685Z,99.21
2022-12-25T01:34:02.622Z,98.85
2022-12-25T01:36:29.892Z,99.04
2022-12-25T01:38:57.126Z,99.69
2022-12-25T01:41:25.295Z,99.13
2022-12-25T01:44:14.370Z,97.76
2022-12-25T01:46:44.596Z,99.24
2022-12-25T01:49:17.719Z,98.63
2022-12-25T01:51:52.912Z,98.41
2022-12-25T01:54:28.339Z,97.95
2022-12-25T01:57:02.785Z,98.47
2022-12-25T01:59:30.645Z,99.28
2022-12-25T02:01:58.618Z,99.71
2022-12-25T02:04:39.613Z,100.00
2022-12-25T02:07:20.160Z,100.00
2022-12-25T02:09:48.884Z,100.00
2022-12-25T02:12:30.666Z,100.00
2022-12-25T02:15:05.844Z,100.00
2022-12-25T02:18:10.530Z,100.00
2022-12-25T02:20:58.055Z,100.00
2022-12-25T02:23:55.372Z,100.00
2022-12-25T02:27:04.285Z,100.00
2022-12-25T02:29:53.419Z,100.00
2022-12-25T02:32:48.017Z,100.00
2022-12-25T02:35:28.849Z,100.00
2022-12-25T02:38:05.907Z,100.00
2022-12-25T02:40:44.088Z,100.00
2022-12-25T02:43:39.909Z,100.00
2022-12-25T02:46:35.446Z,100.00
2022-12-25T02:49:42.574Z,100.00
2022-12-25T02:52:35.056Z,100.00
2022-12-25T02:55:38.385Z,100.00
2022-12-25T02:58:29.160Z,100.00
2022-12-25T03:01:26.337Z,100.00
2022-12-25T03:04:15.760Z,100.00
2022-12-25T03:07:04.817Z,100.00
2022-12-25T03:09:59.161Z,100.00
2022-12-25T03:12:49.721Z,100.00
2022-12-25T03:15:38.043Z,100.00
2022-12-25T03:18:14.525Z,100.00
2022-12-25T03:21:00.336Z,100.00
2022-12-25T03:23:56.458Z,100.00
2022-12-25T03:26:44.162Z,100.00
2022-12-25T03:29:32.136Z,100.00
2022-12-25T03:32:44.020Z,100.00
2022-12-25T03:35:23.237Z,100.00
2022-12-25T03:38:41.989Z,100.00
2022-12-25T03:42:01.419Z,100.00
2022-12-25T03:45:24.537Z,100.00
2022-12-25T03:47:53.730Z,100.00
2022-12-25T03:50:42.475Z,100.00
2022-12-25T03:53:46.495Z,100.00
2022-12-25T03:56:36.284Z,100.00
2022-12-25T03:59:24.473Z,100.00
2022-12-25T04:02:10.622Z,100.00
2022-12-25T04:04:59.058Z,100.00
2022-12-25T04:07:46.698Z,100.00
2022-12-25T04:10:37.226Z,100.00
2022-12-25T04:13:22.712Z,100.00
2022-12-25T04:16:12.637Z,100.00
2022-12-25T04:18:59.067Z,100.00
2022-12-25T04:21:44.894Z,99.98
2022-12-25T04:24:30.757Z,99.16
2022-12-25T04:27:16.551Z,100.00
2022-12-25T04:30:02.337Z,99.61
2022-12-25T04:32:48.341Z,100.00
2022-12-25T04:35:34.443Z,100.00
2022-12-25T04:38:01.846Z,99.69
2022-12-25T04:40:28.845Z,99.35
2022-12-25T04:42:56.093Z,98.21
2022-12-25T04:45:25.591Z,99.21
2022-12-25T04:47:52.589Z,99.35
2022-12-25T04:50:22.258Z,99.36
2022-12-25T04:52:49.245Z,99.52
2022-12-25T04:55:16.567Z,99.86
2022-12-25T04:57:43.550Z,100.00
2022-12-25T05:00:13.951Z,100.00
2022-12-25T05:02:41.023Z,100.00
2022-12-25T05:05:08.759Z,100.00
2022-12-25T05:07:35.885Z,100.00
2022-12-25T05:10:03.466Z,100.00
2022-12-25T05:12:30.580Z,100.00
2022-12-25T05:15:00.012Z,99.95
2022-12-25T05:17:27.247Z,100.00
2022-12-25T05:19:54.274Z,98.80
2022-12-25T05:22:21.286Z,98.95
2022-12-25T05:24:48.137Z,99.38
2022-12-25T05:27:15.973Z,98.81
2022-12-25T05:29:42.987Z,98.67
2022-12-25T05:32:10.136Z,98.36
2022-12-25T05:34:37.155Z,98.83
2022-12-25T05:37:04.211Z,98.79
2022-12-25T05:39:31.410Z,97.79
2022-12-25T05:42:03.079Z,97.75
2022-12-25T05:44:30.069Z,99.04
2022-12-25T05:46:57.119Z,100.00
2022-12-25T05:49:24.382Z,100.00
2022-12-25T05:51:51.473Z,99.93
2022-12-25T05:54:18.521Z,99.71
2022-12-25T05:56:45.465Z,100.00
2022-12-25T05:59:12.647Z,100.00
2022-12-25T06:01:42.796Z,100.00
2022-12-25T06:04:12.721Z,100.00
2022-12-25T06:06:44.674Z,100.00
2022-12-25T06:09:13.519Z,100.00
2022-12-25T06:11:41.173Z,100.00
2022-12-25T06:14:14.382Z,100.00
2022-12-25T06:16:43.748Z,100.00
2022-12-25T06:19:10.754Z,100.00
2022-12-25T06:21:38.083Z,100.00
2022-12-25T06:24:05.390Z,100.00
2022-12-25T06:26:32.766Z,100.00
2022-12-25T06:28:59.939Z,100.00
2022-12-25T06:31:26.911Z,100.00
2022-12-25T06:33:56.124Z,100.00
2022-12-25T06:36:27.725Z,100.00
2022-12-25T06:39:01.166Z,100.00
2022-12-25T06:41:30.884Z,100.00
2022-12-25T06:44:00.572Z,100.00
2022-12-25T06:46:30.696Z,100.00
2022-12-25T06:48:59.278Z,100.00
2022-12-25T06:51:29.522Z,100.00
2022-12-25T06:53:59.812Z,100.00
2022-12-25T06:56:28.617Z,100.00
2022-12-25T06:58:59.171Z,100.00
2022-12-25T07:01:46.343Z,100.00
2022-12-25T07:04:21.706Z,100.00
2022-12-25T07:06:51.245Z,100.00
2022-12-25T07:09:21.828Z,100.00
2022-12-25T07:11:51.729Z,100.00
2022-12-25T07:14:24.504Z,100.00
2022-12-25T07:16:52.089Z,99.43
2022-12-25T07:19:19.470Z,99.73
2022-12-25T07:21:47.231Z,99.39
2022-12-25T07:24:23.174Z,100.00
2022-12-25T07:26:51.575Z,100.00
2022-12-25T07:29:19.958Z,100.00
2022-12-25T07:31:47.756Z,99.85
2022-12-25T07:34:22.555Z,100.00
2022-12-25T07:36:49.978Z,100.00
2022-12-25T07:39:17.005Z,100.00
2022-12-25T07:41:44.731Z,100.00
2022-12-25T07:44:11.726Z,100.00
2022-12-25T07:46:38.736Z,99.92
2022-12-25T07:49:08.395Z,99.35
2022-12-25T07:51:35.557Z,98.62
2022-12-25T07:54:02.613Z,99.09
2022-12-25T07:56:29.721Z,100.00
2022-12-25T07:59:00.037Z,99.19
2022-12-25T08:01:28.284Z,99.28
2022-12-25T08:04:01.060Z,99.02
2022-12-25T08:06:33.792Z,99.58
2022-12-25T08:09:13.907Z,99.16
2022-12-25T08:11:47.902Z,98.76
2022-12-25T08:14:17.455Z,99.38
2022-12-25T08:16:44.635Z,99.46
2022-12-25T08:19:14.460Z,98.26
2022-12-25T08:21:43.449Z,98.06
2022-12-25T08:24:10.875Z,98.39
2022-12-25T08:26:38.497Z,98.89
2022-12-25T08:29:05.392Z,98.20
2022-12-25T08:31:37.255Z,98.99
2022-12-25T08:34:07.016Z,99.97
2022-12-25T08:36:33.997Z,99.25
2022-12-25T08:39:03.317Z,97.04
2022-12-25T08:41:31.284Z,96.92
2022-12-25T08:44:00.985Z,95.65
2022-12-25T08:46:27.830Z,94.48
2022-12-25T08:48:56.668Z,91.68
2022-12-25T08:51:26.566Z,91.98
2022-12-25T08:53:59.145Z,89.80
2022-12-25T08:56:29.200Z,91.29
2022-12-25T08:58:56.033Z,90.22
2022-12-25T09:01:22.931Z,90.42
2022-12-25T09:03:50.014Z,92.82
2022-12-25T09:06:19.214Z,92.60
2022-12-25T09:08:49.855Z,92.54
2022-12-25T09:11:19.051Z,93.54
2022-12-25T09:13:46.487Z,94.13
2022-12-25T09:16:20.499Z,94.66
2022-12-25T09:18:49.973Z,95.81
2022-12-25T09:21:19.946Z,96.54
2022-12-25T09:23:46.908Z,96.64
2022-12-25T09:26:17.042Z,98.49
2022-12-25T09:28:50.581Z,98.34
2022-12-25T09:31:19.166Z,98.59
2022-12-25T09:33:48.977Z,99.00
2022-12-25T09:36:18.164Z,98.22
2022-12-25T09:38:47.126Z,99.33
2022-12-25T09:41:39.760Z,97.60
2022-12-25T09:44:12.075Z,97.13
2022-12-25T09:46:43.196Z,97.75
2022-12-25T09:49:38.299Z,98.40
2022-12-25T09:52:14.851Z,97.21
2022-12-25T09:54:44.574Z,98.30
2022-12-25T09:57:14.153Z,97.85
2022-12-25T09:59:47.566Z,97.70
2022-12-25T10:02:40.569Z,97.12
2022-12-25T10:05:16.457Z,97.47
2022-12-25T10:08:14.550Z,97.41
2022-12-25T10:10:52.849Z,97.98
2022-12-25T10:14:08.575Z,98.65
2022-12-25T10:17:15.455Z,99.19
2022-12-25T10:20:08.541Z,97.81
2022-12-25T10:22:41.004Z,98.43
2022-12-25T10:25:19.891Z,97.40
2022-12-25T10:27:54.416Z,98.34
2022-12-25T10:30:25.378Z,98.26
2022-12-25T10:32:56.871Z,97.40
2022-12-25T10:35:27.545Z,98.48
2022-12-25T10:38:14.314Z,100.00
2022-12-25T10:41:02.648Z,98.74
2022-12-25T10:43:50.510Z,97.26
2022-12-25T10:46:18.718Z,98.21
2022-12-25T10:49:00.995Z,98.47
2022-12-25T10:51:29.633Z,99.28
2022-12-25T10:53:56.963Z,98.76
2022-12-25T10:56:24.095Z,98.08
2022-12-25T10:58:50.981Z,98.08
2022-12-25T11:01:18.314Z,98.55
2022-12-25T11:03:51.439Z,98.21
2022-12-25T11:06:30.928Z,97.84
2022-12-25T11:09:02.619Z,97.08
2022-12-25T11:11:30.489Z,97.66
2022-12-25T11:14:05.012Z,98.21
2022-12-25T11:16:38.449Z,98.67
2022-12-25T11:19:33.097Z,98.93
2022-12-25T11:22:03.920Z,98.51
2022-12-25T11:24:36.045Z,98.74
2022-12-25T11:27:09.133Z,98.97
2022-12-25T11:29:44.955Z,98.98
2022-12-25T11:32:27.220Z,99.65
2022-12-25T11:34:57.239Z,98.00
2022-12-25T11:37:34.935Z,98.61
2022-12-25T11:40:05.694Z,97.68
2022-12-25T11:42:39.586Z,96.52
2022-12-25T11:45:17.376Z,97.61
2022-12-25T11:48:13.146Z,97.28
2022-12-25T11:50:46.977Z,96.88
2022-12-25T11:53:25.625Z,96.84
2022-12-25T11:56:09.009Z,97.94
2022-12-25T11:58:54.790Z,98.11
2022-12-25T12:02:03.429Z,98.93
2022-12-25T12:04:43.231Z,100.00
2022-12-25T12:07:30.170Z,100.00
2022-12-25T12:10:06.049Z,98.72
2022-12-25T12:13:13.177Z,99.31
2022-12-25T12:15:48.134Z,99.04
2022-12-25T12:18:27.318Z,98.09
2022-12-25T12:21:08.112Z,98.43
2022-12-25T12:23:54.863Z,97.53
2022-12-25T12:26:31.514Z,98.49
2022-12-25T12:29:01.264Z,97.63
2022-12-25T12:31:44.619Z,97.30
2022-12-25T12:34:32.594Z,97.00
2022-12-25T12:37:08.154Z,96.46
2022-12-25T12:39:40.664Z,96.46
2022-12-25T12:42:21.072Z,96.40
2022-12-25T12:44:49.854Z,95.50
2022-12-25T12:47:41.715Z,95.60
2022-12-25T12:50:34.332Z,96.91
2022-12-25T12:53:21.508Z,97.98
2022-12-25T12:55:51.483Z,98.28
2022-12-25T12:58:35.627Z,98.85
2022-12-25T13:01:26.839Z,98.43
2022-12-25T13:03:59.135Z,96.69
2022-12-25T13:06:47.853Z,95.66
2022-12-25T13:09:55.331Z,96.31
2022-12-25T13:12:23.029Z,96.35
2022-12-25T13:14:52.593Z,96.45
2022-12-25T13:17:24.994Z,96.69
2022-12-25T13:20:02.479Z,96.86
2022-12-25T13:22:37.005Z,98.15
2022-12-25T13:25:19.537Z,98.04
2022-12-25T13:27:54.120Z,97.12
2022-12-25T13:30:22.396Z,98.26
2022-12-25T13:32:49.389Z,98.65
2022-12-25T13:35:23.422Z,99.70
2022-12-25T13:37:50.747Z,100.00
2022-12-25T13:40:28.456Z,98.81
2022-12-25T13:43:00.307Z,99.29
2022-12-25T13:45:30.884Z,99.02
2022-12-25T13:48:15.046Z,100.00
2022-12-25T13:50:48.284Z,100.00
2022-12-25T13:53:17.818Z,100.00
2022-12-25T13:55:52.512Z,100.00
2022-12-25T13:58:35.005Z,99.96
2022-12-25T14:01:06.001Z,99.22
2022-12-25T14:03:43.997Z,97.16
2022-12-25T14:06:35.757Z,96.32
2022-12-25T14:09:02.728Z,96.45
2022-12-25T14:11:31.221Z,96.28
2022-12-25T14:14:13.991Z,97.28
2022-12-25T14:16:45.091Z,97.77
2022-12-25T14:19:27.652Z,97.98
2022-12-25T14:22:09.251Z,96.97
2022-12-25T14:24:40.454Z,95.85
2022-12-25T14:27:21.592Z,96.00
2022-12-25T14:29:51.797Z,95.13
2022-12-25T14:32:23.062Z,97.21
2022-12-25T14:34:57.137Z,97.16
2022-12-25T14:37:31.070Z,98.48
2022-12-25T14:40:21.859Z,99.44
2022-12-25T14:43:05.447Z,98.76
2022-12-25T14:45:40.966Z,98.12
2022-12-25T14:48:31.105Z,98.21
2022-12-25T14:51:05.004Z,98.47
2022-12-25T14:53:46.857Z,99.09
2022-12-25T14:56:25.916Z,99.89
2022-12-25T14:58:58.987Z,99.45
2022-12-25T15:01:41.657Z,99.18
2022-12-25T15:04:16.718Z,98.74
2022-12-25T15:07:00.441Z,98.27
2022-12-25T15:09:29.885Z,99.45
2022-12-25T15:11:57.169Z,100.00
2022-12-25T15:14:26.389Z,99.85
2022-12-25T15:16:58.142Z,100.00
2022-12-25T15:19:37.242Z,100.00
2022-12-25T15:22:05.208Z,100.00
2022-12-25T15:24:32.163Z,100.00
2022-12-25T15:27:00.616Z,100.00
2022-12-25T15:30:00.280Z,99.99
2022-12-25T15:32:21.592Z,99.72
2022-12-25T15:34:49.853Z,100.00
2022-12-25T15:37:18.914Z,100.00
2022-12-25T15:39:46.513Z,100.00
2022-12-25T15:42:19.540Z,100.00
2022-12-25T15:44:46.620Z,100.00
2022-12-25T15:47:20.267Z,100.00
2022-12-25T15:49:50.285Z,100.00
2022-12-25T15:52:17.985Z,100.00
2022-12-25T15:54:47.899Z,100.00
2022-12-25T15:57:24.310Z,100.00
2022-12-25T15:59:53.508Z,100.00
2022-12-25T16:02:21.280Z,100.00
2022-12-25T16:04:51.213Z,100.00
2022-12-25T16:07:23.067Z,100.00
2022-12-25T16:09:53.065Z,100.00
2022-12-25T16:12:22.438Z,100.00
2022-12-25T16:14:49.284Z,100.00
2022-12-25T16:17:16.506Z,100.00
2022-12-25T16:19:44.848Z,100.00
2022-12-25T16:22:21.925Z,100.00
2022-12-25T16:24:50.038Z,100.00
2022-12-25T16:27:17.129Z,100.00
2022-12-25T16:29:44.449Z,100.00
2022-12-25T16:32:15.591Z,100.00
2022-12-25T16:34:44.588Z,100.00
2022-12-25T16:37:11.510Z,100.00
2022-12-25T16:39:38.388Z,100.00
2022-12-25T16:42:07.426Z,100.00
2022-12-25T16:44:37.466Z,100.00
2022-12-25T16:47:04.645Z,100.00
2022-12-25T16:49:31.704Z,100.00
2022-12-25T16:51:58.716Z,100.00
2022-12-25T16:54:25.771Z,100.00
2022-12-25T16:56:55.244Z,100.00
2022-12-25T16:59:22.212Z,100.00
2022-12-25T17:01:49.579Z,100.00
2022-12-25T17:04:16.733Z,100.00
2022-12-25T17:06:46.083Z,100.00
2022-12-25T17:09:13.070Z,100.00
2022-12-25T17:11:40.335Z,100.00
2022-12-25T17:14:10.369Z,100.00
2022-12-25T17:16:40.442Z,100.00
2022-12-25T17:19:16.835Z,100.00
2022-12-25T17:21:46.814Z,100.00
2022-12-25T17:24:15.126Z,100.00
2022-12-25T17:26:43.886Z,100.00
2022-12-25T17:29:19.975Z,98.82
2022-12-25T17:31:48.955Z,98.46
2022-12-25T17:34:16.037Z,98.94
2022-12-25T17:36:42.960Z,98.66
2022-12-25T17:39:10.840Z,98.54
2022-12-25T17:41:40.448Z,96.57
2022-12-25T17:44:07.492Z,97.16
2022-12-25T17:46:36.795Z,97.96
2022-12-25T17:49:04.090Z,96.88
2022-12-25T17:51:36.066Z,96.41
2022-12-25T17:54:05.990Z,94.79
2022-12-25T17:56:33.749Z,96.12
2022-12-25T17:59:08.098Z,96.54
2022-12-25T18:01:40.996Z,97.02
2022-12-25T18:04:08.122Z,96.33
2022-12-25T18:06:38.812Z,96.70
2022-12-25T18:09:11.023Z,95.77
2022-12-25T18:11:41.075Z,95.64
2022-12-25T18:14:13.681Z,94.78
2022-12-25T18:16:43.757Z,95.50
2022-12-25T18:19:15.662Z,96.49
2022-12-25T18:21:42.884Z,96.35
2022-12-25T18:24:12.373Z,96.95
2022-12-25T18:26:41.718Z,96.99
2022-12-25T18:29:08.848Z,97.72
2022-12-25T18:31:36.571Z,98.48
2022-12-25T18:34:06.085Z,98.02
2022-12-25T18:36:33.041Z,97.19
2022-12-25T18:39:02.400Z,98.65
2022-12-25T18:41:30.351Z,99.00
2022-12-25T18:43:59.658Z,100.00
2022-12-25T18:46:27.923Z,99.73
2022-12-25T18:48:56.737Z,98.78
2022-12-25T18:51:24.390Z,98.27
2022-12-25T18:53:51.777Z,97.91
2022-12-25T18:56:20.973Z,98.44
2022-12-25T18:58:50.333Z,99.45
2022-12-25T19:01:20.877Z,99.36
2022-12-25T19:03:51.578Z,100.00
2022-12-25T19:06:32.582Z,100.00
2022-12-25T19:09:09.354Z,100.00
2022-12-25T19:11:45.653Z,100.00
2022-12-25T19:14:14.239Z,100.00
2022-12-25T19:16:44.486Z,98.21
2022-12-25T19:19:11.897Z,98.73
2022-12-25T19:21:38.952Z,99.23
2022-12-25T19:24:06.217Z,99.99
2022-12-25T19:26:33.449Z,99.56
2022-12-25T19:29:02.435Z,99.18
2022-12-25T19:31:29.413Z,98.96
2022-12-25T19:33:56.560Z,99.23
2022-12-25T19:36:26.081Z,98.79
2022-12-25T19:38:53.591Z,99.89
2022-12-25T19:41:22.620Z,100.00
2022-12-25T19:43:50.040Z,100.00
2022-12-25T19:46:23.080Z,100.00
2022-12-25T19:48:50.400Z,100.00
2022-12-25T19:51:25.770Z,100.00
2022-12-25T19:53:56.230Z,99.01
2022-12-25T19:56:27.762Z,98.95
2022-12-25T19:59:00.660Z,98.59
2022-12-25T20:01:31.758Z,97.84
2022-12-25T20:04:02.233Z,98.43
2022-12-25T20:06:33.739Z,97.27
2022-12-25T20:09:07.811Z,98.47
2022-12-25T20:11:36.967Z,96.38
2022-12-25T20:14:10.697Z,96.64
2022-12-25T20:16:38.992Z,97.62
2022-12-25T20:19:09.829Z,97.53
2022-12-25T20:21:39.175Z,97.51
2022-12-25T20:24:09.169Z,98.06
2022-12-25T20:26:36.215Z,97.91
2022-12-25T20:29:03.967Z,98.92
2022-12-25T20:31:35.808Z,98.26
2022-12-25T20:34:11.501Z,96.65
2022-12-25T20:36:41.039Z,97.66
2022-12-25T20:39:12.787Z,97.19
2022-12-25T20:41:42.617Z,97.35
2022-12-25T20:44:10.246Z,97.18
2022-12-25T20:46:37.867Z,97.74
2022-12-25T20:49:06.861Z,98.00
2022-12-25T20:51:34.138Z,98.01
2022-12-25T20:54:06.353Z,98.17
2022-12-25T20:56:33.639Z,97.02
2022-12-25T20:59:01.153Z,96.90
2022-12-25T21:01:30.680Z,97.28
2022-12-25T21:04:00.218Z,97.71
2022-12-25T21:06:27.283Z,97.56
2022-12-25T21:08:57.178Z,98.13
2022-12-25T21:11:24.114Z,98.34
2022-12-25T21:13:51.173Z,97.53
2022-12-25T21:16:23.241Z,97.14
2022-12-25T21:18:53.156Z,97.54
2022-12-25T21:21:22.846Z,98.07
2022-12-25T21:23:49.994Z,97.03
2022-12-25T21:26:22.722Z,96.81
2022-12-25T21:28:52.991Z,97.42
2022-12-25T21:31:22.467Z,97.52
2022-12-25T21:33:53.441Z,96.86
2022-12-25T21:36:23.545Z,95.97
2022-12-25T21:39:03.851Z,94.91
2022-12-25T21:41:43.527Z,93.42
2022-12-25T21:44:11.333Z,93.78
2022-12-25T21:46:38.267Z,93.92
2022-12-25T21:49:07.455Z,93.69
2022-12-25T21:51:55.682Z,93.56
2022-12-25T21:54:23.538Z,94.58
2022-12-25T21:56:50.837Z,94.65
2022-12-25T21:59:20.879Z,95.17
2022-12-25T22:01:51.914Z,94.44
2022-12-25T22:04:24.176Z,94.67
2022-12-25T22:07:12.911Z,93.23
2022-12-25T22:09:42.023Z,93.69
2022-12-25T22:12:34.004Z,93.90
2022-12-25T22:15:06.275Z,93.12
2022-12-25T22:17:59.385Z,93.20
2022-12-25T22:20:30.763Z,93.96
2022-12-25T22:23:00.412Z,94.86
2022-12-25T22:25:27.643Z,94.71
2022-12-25T22:27:55.064Z,94.86
2022-12-25T22:30:27.156Z,94.55
2022-12-25T22:32:56.962Z,94.69
2022-12-25T22:35:24.512Z,94.14
2022-12-25T22:37:54.232Z,95.25
2022-12-25T22:40:22.879Z,94.82
2022-12-25T22:42:50.691Z,95.61
2022-12-25T22:45:20.112Z,94.41
2022-12-25T22:47:47.085Z,94.00
2022-12-25T22:50:15.046Z,94.39
2022-12-25T22:52:45.712Z,94.54
2022-12-25T22:55:16.241Z,94.44
2022-12-25T22:57:43.065Z,94.41
2022-12-25T23:00:13.476Z,94.73
2022-12-25T23:02:40.624Z,94.87
2022-12-25T23:05:09.906Z,95.48
2022-12-25T23:07:40.390Z,96.06
2022-12-25T23:10:08.501Z,95.67
2022-12-25T23:12:56.337Z,96.28
2022-12-25T23:15:27.532Z,96.05
2022-12-25T23:18:13.655Z,96.69
2022-12-25T23:20:58.890Z,96.91
2022-12-25T23:23:44.590Z,96.51
2022-12-25T23:26:14.537Z,98.52
2022-12-25T23:29:03.359Z,99.02
2022-12-25T23:31:38.089Z,98.51
2022-12-25T23:34:06.864Z,98.94
2022-12-25T23:36:34.444Z,98.58
2022-12-25T23:39:09.972Z,98.85
2022-12-25T23:41:39.741Z,97.98
2022-12-25T23:44:10.555Z,98.04
2022-12-25T23:46:40.401Z,97.80
2022-12-25T23:49:08.888Z,97.50
2022-12-25T23:51:43.053Z,98.49
2022-12-25T23:54:16.326Z,98.18
2022-12-25T23:56:44.402Z,97.42
2022-12-25T23:59:12.396Z,99.05
